createdAt,value
2023-04-03T00:00:00.556Z,67
2023-04-03T00:04:00.572Z,67
2023-04-03T00:08:00.550Z,66
2023-04-03T00:12:00.554Z,66
2023-04-03T00:16:00.542Z,66
2023-04-03T00:20:00.550Z,67
2023-04-03T00:24:00.547Z,67
2023-04-03T00:28:00.542Z,66
2023-04-03T00:32:00.580Z,66
2023-04-03T00:36:00.723Z,66
2023-04-03T00:40:00.558Z,67
2023-04-03T00:44:00.545Z,66
2023-04-03T00:48:00.671Z,66
2023-04-03T00:52:00.551Z,66
2023-04-03T00:56:00.569Z,66
2023-04-03T01:00:00.547Z,66
2023-04-03T01:04:00.566Z,66
2023-04-03T01:08:00.533Z,66
2023-04-03T01:12:00.561Z,65
2023-04-03T01:16:00.554Z,65
2023-04-03T01:20:00.574Z,65
2023-04-03T01:24:00.540Z,65
2023-04-03T01:28:00.558Z,65
2023-04-03T01:32:00.547Z,65
2023-04-03T01:36:00.593Z,65
2023-04-03T01:40:00.531Z,65
2023-04-03T01:44:00.578Z,65
2023-04-03T01:48:00.548Z,65
2023-04-03T01:52:00.524Z,66
2023-04-03T01:56:00.548Z,65
2023-04-03T02:00:00.551Z,65
2023-04-03T02:04:00.629Z,66
2023-04-03T02:08:00.568Z,65
2023-04-03T02:12:00.535Z,66
2023-04-03T02:16:00.521Z,66
2023-04-03T02:20:00.510Z,66
2023-04-03T02:24:00.531Z,66
2023-04-03T02:28:00.550Z,66
2023-04-03T02:32:00.550Z,66
2023-04-03T02:36:00.564Z,67
2023-04-03T02:40:00.561Z,67
2023-04-03T02:44:00.537Z,67
2023-04-03T02:48:00.547Z,67
2023-04-03T02:52:00.527Z,67
2023-04-03T02:56:00.534Z,68
2023-04-03T03:00:00.608Z,68
2023-04-03T03:04:00.523Z,69
2023-04-03T03:08:00.553Z,69
2023-04-03T03:12:00.558Z,69
2023-04-03T03:16:00.596Z,69
2023-04-03T03:20:00.542Z,69
2023-04-03T03:24:00.543Z,70
2023-04-03T03:28:00.554Z,71
2023-04-03T03:32:00.531Z,71
2023-04-03T03:36:00.624Z,71
2023-04-03T03:40:00.546Z,71
2023-04-03T03:44:00.574Z,71
2023-04-03T03:48:00.585Z,71
2023-04-03T03:52:00.546Z,71
2023-04-03T03:56:00.542Z,71
2023-04-03T04:00:00.555Z,71
2023-04-03T04:04:00.580Z,72
2023-04-03T04:08:00.566Z,72
2023-04-03T04:12:00.550Z,72
2023-04-03T04:16:00.556Z,72
2023-04-03T04:20:00.545Z,73
2023-04-03T04:24:00.556Z,73
2023-04-03T04:28:00.549Z,73
2023-04-03T04:32:00.546Z,73
2023-04-03T04:36:00.592Z,73
2023-04-03T04:40:00.564Z,73
2023-04-03T04:44:00.538Z,73
2023-04-03T04:48:00.602Z,73
2023-04-03T04:52:00.547Z,73
2023-04-03T04:56:00.528Z,74
2023-04-03T05:00:00.567Z,74
2023-04-03T05:04:00.541Z,74
2023-04-03T05:08:00.548Z,74
2023-04-03T05:12:00.554Z,75
2023-04-03T05:16:00.595Z,75
2023-04-03T05:20:00.567Z,75
2023-04-03T05:24:00.572Z,75
2023-04-03T05:28:00.558Z,75
2023-04-03T05:32:00.562Z,75
2023-04-03T05:36:00.550Z,75
2023-04-03T05:40:00.551Z,75
2023-04-03T05:44:00.546Z,75
2023-04-03T05:48:00.595Z,75
2023-04-03T05:52:00.538Z,75
2023-04-03T05:56:00.540Z,75
2023-04-03T06:00:00.529Z,74
2023-04-03T06:04:00.675Z,74
2023-04-03T06:08:00.531Z,73
2023-04-03T06:12:00.560Z,73
2023-04-03T06:16:00.542Z,72
2023-04-03T06:20:00.556Z,72
2023-04-03T06:24:00.533Z,72
2023-04-03T06:28:00.564Z,71
2023-04-03T06:32:00.546Z,69
2023-04-03T06:36:00.578Z,69
2023-04-03T06:40:00.549Z,68
2023-04-03T06:44:00.560Z,67
2023-04-03T06:48:00.597Z,66
2023-04-03T06:52:02.082Z,64
2023-04-03T06:56:00.537Z,62
2023-04-03T07:00:00.558Z,62
2023-04-03T07:04:00.555Z,61
2023-04-03T07:08:00.533Z,59
2023-04-03T07:12:00.556Z,59
2023-04-03T07:16:00.558Z,57
2023-04-03T07:20:00.578Z,56
2023-04-03T07:24:00.529Z,56
2023-04-03T07:28:00.563Z,55
2023-04-03T07:32:00.721Z,55
2023-04-03T07:36:00.605Z,51
2023-04-03T07:40:00.560Z,50
2023-04-03T07:44:00.534Z,47
2023-04-03T07:48:00.564Z,46
2023-04-03T07:52:00.561Z,47
2023-04-03T07:56:00.560Z,46
2023-04-03T08:00:00.540Z,45
2023-04-03T08:04:00.663Z,47
2023-04-03T08:08:00.538Z,46
2023-04-03T08:12:00.566Z,48
2023-04-03T08:16:00.546Z,46
2023-04-03T08:20:00.542Z,46
2023-04-03T08:24:00.540Z,43
2023-04-03T08:28:00.568Z,40
2023-04-03T08:32:00.533Z,38
2023-04-03T08:36:00.619Z,38
2023-04-03T08:40:00.548Z,39
2023-04-03T08:44:00.554Z,40
2023-04-03T08:48:00.645Z,41
2023-04-03T08:52:00.555Z,41
2023-04-03T08:56:00.553Z,42
2023-04-03T09:00:00.523Z,42
2023-04-03T09:04:00.583Z,42
2023-04-03T09:08:00.555Z,42
2023-04-03T09:12:00.571Z,42
2023-04-03T09:16:00.634Z,41
2023-04-03T09:20:00.528Z,41
2023-04-03T09:24:00.615Z,39
2023-04-03T09:28:00.544Z,39
2023-04-03T09:32:00.545Z,39
2023-04-03T09:36:00.555Z,40
2023-04-03T09:40:00.560Z,39
2023-04-03T09:44:00.559Z,40
2023-04-03T09:48:00.600Z,41
2023-04-03T09:52:00.537Z,41
2023-04-03T09:56:00.559Z,40
2023-04-03T10:00:00.626Z,41
2023-04-03T10:04:00.616Z,42
2023-04-03T10:08:04.104Z,41
2023-04-03T10:12:00.527Z,38
2023-04-03T10:16:00.528Z,40
2023-04-03T10:20:00.556Z,40
2023-04-03T10:24:00.548Z,40
2023-04-03T10:28:00.551Z,39
2023-04-03T10:32:00.571Z,40
2023-04-03T10:36:00.596Z,42
2023-04-03T10:40:00.560Z,41
2023-04-03T10:44:00.532Z,41
2023-04-03T10:48:00.580Z,42
2023-04-03T10:52:00.568Z,41
2023-04-03T10:56:00.537Z,41
2023-04-03T11:00:00.545Z,42
2023-04-03T11:04:00.649Z,43
2023-04-03T11:08:00.562Z,43
2023-04-03T11:12:00.543Z,43
2023-04-03T11:16:00.575Z,43
2023-04-03T11:20:00.549Z,44
2023-04-03T11:24:00.553Z,44
2023-04-03T11:28:00.535Z,44
2023-04-03T11:32:00.685Z,45
2023-04-03T11:36:00.603Z,46
2023-04-03T11:40:00.533Z,46
2023-04-03T11:44:00.550Z,47
2023-04-03T11:48:04.757Z,48
2023-04-03T11:52:00.545Z,47
2023-04-03T11:56:00.550Z,46
2023-04-03T12:00:00.534Z,44
2023-04-03T12:04:00.623Z,44
2023-04-03T12:08:00.536Z,42
2023-04-03T12:12:00.541Z,43
2023-04-03T12:16:00.552Z,42
2023-04-03T12:20:00.548Z,43
2023-04-03T12:24:00.588Z,43
2023-04-03T12:28:00.546Z,44
2023-04-03T12:32:00.531Z,44
2023-04-03T12:36:01.967Z,43
2023-04-03T12:40:00.536Z,43
2023-04-03T12:44:00.545Z,42
2023-04-03T12:48:00.594Z,42
2023-04-03T12:52:00.531Z,43
2023-04-03T12:56:00.557Z,43
2023-04-03T13:00:00.539Z,44
2023-04-03T13:04:00.756Z,44
2023-04-03T13:08:00.540Z,44
2023-04-03T13:12:00.554Z,43
2023-04-03T13:16:00.582Z,42
2023-04-03T13:20:00.536Z,42
2023-04-03T13:24:13.794Z,42
2023-04-03T13:28:12.654Z,42
2023-04-03T13:32:00.636Z,43
2023-04-03T13:36:00.561Z,43
2023-04-03T13:40:00.538Z,43
2023-04-03T13:44:10.288Z,42
2023-04-03T13:52:07.757Z,41
2023-04-03T13:56:00.555Z,42
2023-04-03T14:00:00.601Z,43
2023-04-03T14:04:00.588Z,43
2023-04-03T14:08:00.544Z,44
2023-04-03T14:12:00.554Z,45
2023-04-03T14:16:13.028Z,46
2023-04-03T14:20:00.529Z,46
2023-04-03T14:24:00.564Z,46
2023-04-03T14:28:00.528Z,45
2023-04-03T14:32:07.864Z,46
2023-04-03T14:36:00.574Z,46
2023-04-03T14:40:00.525Z,45
2023-04-03T14:44:00.576Z,44
2023-04-03T14:48:00.638Z,44
2023-04-03T14:52:00.557Z,44
2023-04-03T14:56:00.541Z,45
2023-04-03T15:00:00.549Z,46
2023-04-03T15:04:00.705Z,46
2023-04-03T15:08:00.542Z,48
2023-04-03T15:12:00.566Z,48
2023-04-03T15:16:00.556Z,49
2023-04-03T15:20:00.552Z,50
2023-04-03T15:24:02.108Z,50
2023-04-03T15:28:00.543Z,50
2023-04-03T15:32:00.583Z,50
2023-04-03T15:36:07.255Z,51
2023-04-03T15:40:00.630Z,51
2023-04-03T15:44:00.558Z,51
2023-04-03T15:48:00.596Z,51
2023-04-03T15:52:00.526Z,51
2023-04-03T15:56:00.549Z,51
2023-04-03T16:00:00.637Z,51
2023-04-03T16:04:00.525Z,52
2023-04-03T16:08:00.554Z,52
2023-04-03T16:12:00.559Z,52
2023-04-03T16:16:00.617Z,52
2023-04-03T16:20:00.524Z,52
2023-04-03T16:24:00.542Z,51
2023-04-03T16:28:00.514Z,51
2023-04-03T16:32:00.600Z,51
2023-04-03T16:36:00.546Z,52
2023-04-03T16:40:00.579Z,52
2023-04-03T16:44:00.539Z,52
2023-04-03T16:48:00.605Z,52
2023-04-03T16:52:00.542Z,52
2023-04-03T16:56:00.568Z,53
2023-04-03T17:00:00.543Z,52
2023-04-03T17:04:00.595Z,51
2023-04-03T17:08:00.578Z,52
2023-04-03T17:12:00.557Z,52
2023-04-03T17:16:00.592Z,53
2023-04-03T17:20:00.556Z,53
2023-04-03T17:24:00.562Z,53
2023-04-03T17:28:00.533Z,53
2023-04-03T17:32:00.597Z,54
2023-04-03T17:36:00.549Z,54
2023-04-03T17:40:00.552Z,55
2023-04-03T17:44:00.605Z,55
2023-04-03T17:48:00.605Z,55
2023-04-03T17:52:00.558Z,55
2023-04-03T17:56:00.567Z,55
2023-04-03T18:00:00.572Z,55
2023-04-03T18:04:00.544Z,55
2023-04-03T18:08:00.592Z,56
2023-04-03T18:12:00.577Z,56
2023-04-03T18:16:00.586Z,56
2023-04-03T18:20:00.588Z,55
2023-04-03T18:24:00.553Z,55
2023-04-03T18:28:00.568Z,55
2023-04-03T18:32:00.639Z,55
2023-04-03T18:36:00.552Z,55
2023-04-03T18:40:00.527Z,57
2023-04-03T18:44:00.549Z,57
2023-04-03T18:48:00.685Z,57
2023-04-03T18:52:00.565Z,57
2023-04-03T18:56:00.564Z,57
2023-04-03T19:00:00.535Z,58
2023-04-03T19:04:00.544Z,58
2023-04-03T19:08:00.536Z,58
2023-04-03T19:12:00.546Z,58
2023-04-03T19:16:00.525Z,59
2023-04-03T19:20:00.538Z,59
2023-04-03T19:24:00.540Z,59
2023-04-03T19:28:00.569Z,59
2023-04-03T19:32:00.561Z,59
2023-04-03T19:36:00.536Z,59
2023-04-03T19:40:00.600Z,59
2023-04-03T19:44:00.535Z,59
2023-04-03T19:48:00.613Z,60
2023-04-03T19:52:00.566Z,60
2023-04-03T19:56:00.557Z,60
2023-04-03T20:00:00.576Z,61
2023-04-03T20:04:00.565Z,61
2023-04-03T20:08:00.601Z,61
2023-04-03T20:12:00.570Z,62
2023-04-03T20:16:00.646Z,63
2023-04-03T20:20:00.530Z,63
2023-04-03T20:24:00.543Z,63
2023-04-03T20:28:00.548Z,63
2023-04-03T20:32:00.609Z,63
2023-04-03T20:36:00.556Z,63
2023-04-03T20:40:00.577Z,64
2023-04-03T20:44:00.551Z,65
2023-04-03T20:48:00.554Z,64
2023-04-03T20:52:00.540Z,65
2023-04-03T20:56:00.975Z,65
2023-04-03T21:00:00.558Z,65
2023-04-03T21:04:00.593Z,65
2023-04-03T21:08:00.535Z,65
2023-04-03T21:12:00.522Z,65
2023-04-03T21:16:00.544Z,66
2023-04-03T21:20:00.551Z,67
2023-04-03T21:24:00.538Z,67
2023-04-03T21:28:00.555Z,67
2023-04-03T21:32:00.532Z,68
2023-04-03T21:36:00.550Z,67
2023-04-03T21:40:00.587Z,67
2023-04-03T21:44:00.570Z,68
2023-04-03T21:48:00.607Z,67
2023-04-03T21:52:00.540Z,67
2023-04-03T21:56:00.557Z,67
2023-04-03T22:00:00.771Z,67
2023-04-03T22:04:00.528Z,67
2023-04-03T22:08:00.548Z,67
2023-04-03T22:12:00.518Z,67
2023-04-03T22:16:00.588Z,67
2023-04-03T22:20:00.557Z,68
2023-04-03T22:24:00.556Z,68
2023-04-03T22:28:00.543Z,68
2023-04-03T22:32:00.586Z,68
2023-04-03T22:36:00.586Z,67
2023-04-03T22:40:00.540Z,68
2023-04-03T22:44:00.534Z,68
2023-04-03T22:48:00.597Z,69
2023-04-03T22:52:00.530Z,69
2023-04-03T22:56:00.553Z,69
2023-04-03T23:00:00.574Z,69
2023-04-03T23:04:00.558Z,69
2023-04-03T23:08:00.539Z,69
2023-04-03T23:12:00.565Z,69
2023-04-03T23:16:00.537Z,69
2023-04-03T23:20:00.548Z,69
2023-04-03T23:24:00.525Z,69
2023-04-03T23:28:00.546Z,68
2023-04-03T23:32:00.562Z,68
2023-04-03T23:36:00.577Z,68
2023-04-03T23:40:00.528Z,69
2023-04-03T23:44:00.556Z,69
2023-04-03T23:48:00.593Z,68
2023-04-03T23:52:00.549Z,69
2023-04-03T23:56:00.547Z,69
